sensor_id;sensor_type;location;lat;lon;timestamp;temperature;humidity
65207;SHT31;58477;48.072;11.970;2023-07-31T00:01:14;15.45;87.13
65207;SHT31;58477;48.072;11.970;2023-07-31T00:03:39;15.37;87.47
65207;SHT31;58477;48.072;11.970;2023-07-31T00:06:05;15.35;88.86
65207;SHT31;58477;48.072;11.970;2023-07-31T00:08:30;15.33;88.49
65207;SHT31;58477;48.072;11.970;2023-07-31T00:10:56;15.23;87.46
65207;SHT31;58477;48.072;11.970;2023-07-31T00:13:21;15.16;87.30
65207;SHT31;58477;48.072;11.970;2023-07-31T00:15:47;15.11;87.49
65207;SHT31;58477;48.072;11.970;2023-07-31T00:18:12;14.93;87.39
65207;SHT31;58477;48.072;11.970;2023-07-31T00:20:38;14.94;87.44
65207;SHT31;58477;48.072;11.970;2023-07-31T00:23:03;15.01;86.59
65207;SHT31;58477;48.072;11.970;2023-07-31T00:25:28;14.97;86.64
65207;SHT31;58477;48.072;11.970;2023-07-31T00:27:54;14.81;88.42
65207;SHT31;58477;48.072;11.970;2023-07-31T00:30:19;14.77;88.56
65207;SHT31;58477;48.072;11.970;2023-07-31T00:32:45;14.76;88.33
65207;SHT31;58477;48.072;11.970;2023-07-31T00:35:10;14.76;88.25
65207;SHT31;58477;48.072;11.970;2023-07-31T00:37:36;14.65;89.23
65207;SHT31;58477;48.072;11.970;2023-07-31T00:40:01;14.59;90.02
65207;SHT31;58477;48.072;11.970;2023-07-31T00:42:29;14.48;89.98
65207;SHT31;58477;48.072;11.970;2023-07-31T00:44:54;14.46;90.22
65207;SHT31;58477;48.072;11.970;2023-07-31T00:47:20;14.45;90.00
65207;SHT31;58477;48.072;11.970;2023-07-31T00:49:46;14.55;89.35
65207;SHT31;58477;48.072;11.970;2023-07-31T00:52:11;14.58;89.35
65207;SHT31;58477;48.072;11.970;2023-07-31T00:54:37;14.68;88.77
65207;SHT31;58477;48.072;11.970;2023-07-31T00:57:03;14.70;88.55
65207;SHT31;58477;48.072;11.970;2023-07-31T00:59:28;14.79;88.42
65207;SHT31;58477;48.072;11.970;2023-07-31T01:01:54;14.84;88.11
65207;SHT31;58477;48.072;11.970;2023-07-31T01:04:21;14.91;88.17
65207;SHT31;58477;48.072;11.970;2023-07-31T01:07:03;14.94;88.17
65207;SHT31;58477;48.072;11.970;2023-07-31T01:09:42;14.87;88.52
65207;SHT31;58477;48.072;11.970;2023-07-31T01:12:09;14.70;89.13
65207;SHT31;58477;48.072;11.970;2023-07-31T01:14:38;14.80;88.22
65207;SHT31;58477;48.072;11.970;2023-07-31T01:17:04;14.73;88.23
65207;SHT31;58477;48.072;11.970;2023-07-31T01:19:29;14.69;88.31
65207;SHT31;58477;48.072;11.970;2023-07-31T01:26:53;14.80;89.07
65207;SHT31;58477;48.072;11.970;2023-07-31T01:29:26;14.86;87.44
65207;SHT31;58477;48.072;11.970;2023-07-31T01:31:56;14.89;87.59
65207;SHT31;58477;48.072;11.970;2023-07-31T01:34:22;14.79;88.43
65207;SHT31;58477;48.072;11.970;2023-07-31T01:36:48;14.70;88.70
65207;SHT31;58477;48.072;11.970;2023-07-31T01:39:14;14.80;88.73
65207;SHT31;58477;48.072;11.970;2023-07-31T01:41:40;14.86;88.33
65207;SHT31;58477;48.072;11.970;2023-07-31T01:44:06;14.90;87.90
65207;SHT31;58477;48.072;11.970;2023-07-31T01:46:31;14.99;87.36
65207;SHT31;58477;48.072;11.970;2023-07-31T01:48:57;15.04;88.28
65207;SHT31;58477;48.072;11.970;2023-07-31T01:51:23;15.03;89.36
65207;SHT31;58477;48.072;11.970;2023-07-31T01:53:48;14.94;87.99
65207;SHT31;58477;48.072;11.970;2023-07-31T01:56:13;14.90;88.25
65207;SHT31;58477;48.072;11.970;2023-07-31T01:58:39;14.90;87.88
65207;SHT31;58477;48.072;11.970;2023-07-31T02:01:05;14.89;89.32
65207;SHT31;58477;48.072;11.970;2023-07-31T02:03:33;14.93;88.03
65207;SHT31;58477;48.072;11.970;2023-07-31T02:05:58;14.89;87.89
65207;SHT31;58477;48.072;11.970;2023-07-31T02:08:24;14.90;87.66
65207;SHT31;58477;48.072;11.970;2023-07-31T02:10:51;14.86;88.26
65207;SHT31;58477;48.072;11.970;2023-07-31T02:13:16;14.72;88.96
65207;SHT31;58477;48.072;11.970;2023-07-31T02:15:42;14.65;89.85
65207;SHT31;58477;48.072;11.970;2023-07-31T02:18:08;14.69;90.50
65207;SHT31;58477;48.072;11.970;2023-07-31T02:20:34;14.72;90.48
65207;SHT31;58477;48.072;11.970;2023-07-31T02:23:01;14.72;90.20
65207;SHT31;58477;48.072;11.970;2023-07-31T02:25:26;14.79;89.90
65207;SHT31;58477;48.072;11.970;2023-07-31T02:27:52;14.81;89.92
65207;SHT31;58477;48.072;11.970;2023-07-31T02:30:17;14.81;88.68
65207;SHT31;58477;48.072;11.970;2023-07-31T02:32:43;14.81;89.07
65207;SHT31;58477;48.072;11.970;2023-07-31T02:35:09;14.70;89.62
65207;SHT31;58477;48.072;11.970;2023-07-31T02:37:35;14.49;90.39
65207;SHT31;58477;48.072;11.970;2023-07-31T02:40:01;14.43;91.19
65207;SHT31;58477;48.072;11.970;2023-07-31T02:42:27;14.42;91.56
65207;SHT31;58477;48.072;11.970;2023-07-31T02:44:53;14.43;91.53
65207;SHT31;58477;48.072;11.970;2023-07-31T02:47:22;14.49;91.37
65207;SHT31;58477;48.072;11.970;2023-07-31T02:49:47;14.30;90.92
65207;SHT31;58477;48.072;11.970;2023-07-31T02:52:13;14.30;91.54
65207;SHT31;58477;48.072;11.970;2023-07-31T02:54:38;14.29;91.20
65207;SHT31;58477;48.072;11.970;2023-07-31T02:57:04;14.28;90.91
65207;SHT31;58477;48.072;11.970;2023-07-31T02:59:30;14.32;90.75
65207;SHT31;58477;48.072;11.970;2023-07-31T03:01:55;14.18;91.86
65207;SHT31;58477;48.072;11.970;2023-07-31T03:04:20;14.16;91.70
65207;SHT31;58477;48.072;11.970;2023-07-31T03:06:46;14.12;91.50
65207;SHT31;58477;48.072;11.970;2023-07-31T03:09:11;14.22;92.10
65207;SHT31;58477;48.072;11.970;2023-07-31T03:11:37;14.21;91.94
65207;SHT31;58477;48.072;11.970;2023-07-31T03:14:03;14.26;91.65
65207;SHT31;58477;48.072;11.970;2023-07-31T03:16:28;14.38;90.96
65207;SHT31;58477;48.072;11.970;2023-07-31T03:18:54;14.38;91.39
65207;SHT31;58477;48.072;11.970;2023-07-31T03:21:19;14.38;91.68
65207;SHT31;58477;48.072;11.970;2023-07-31T03:23:45;14.43;91.46
65207;SHT31;58477;48.072;11.970;2023-07-31T03:26:10;14.48;91.36
65207;SHT31;58477;48.072;11.970;2023-07-31T03:28:36;14.53;91.28
65207;SHT31;58477;48.072;11.970;2023-07-31T03:31:01;14.59;91.36
65207;SHT31;58477;48.072;11.970;2023-07-31T03:33:29;14.56;91.21
65207;SHT31;58477;48.072;11.970;2023-07-31T03:35:54;14.59;91.09
65207;SHT31;58477;48.072;11.970;2023-07-31T03:38:20;14.55;89.59
65207;SHT31;58477;48.072;11.970;2023-07-31T03:40:47;14.49;90.47
65207;SHT31;58477;48.072;11.970;2023-07-31T03:43:13;14.30;90.69
65207;SHT31;58477;48.072;11.970;2023-07-31T03:45:38;14.12;91.26
65207;SHT31;58477;48.072;11.970;2023-07-31T03:48:04;14.18;91.92
65207;SHT31;58477;48.072;11.970;2023-07-31T03:50:30;14.16;91.87
65207;SHT31;58477;48.072;11.970;2023-07-31T03:52:55;14.12;92.10
65207;SHT31;58477;48.072;11.970;2023-07-31T03:55:21;14.06;92.35
65207;SHT31;58477;48.072;11.970;2023-07-31T03:57:47;14.04;92.41
65207;SHT31;58477;48.072;11.970;2023-07-31T04:00:12;14.06;92.21
65207;SHT31;58477;48.072;11.970;2023-07-31T04:02:38;14.08;92.24
65207;SHT31;58477;48.072;11.970;2023-07-31T04:05:03;14.02;92.59
65207;SHT31;58477;48.072;11.970;2023-07-31T04:07:29;14.09;92.02
65207;SHT31;58477;48.072;11.970;2023-07-31T04:09:55;14.09;91.91
65207;SHT31;58477;48.072;11.970;2023-07-31T04:12:20;14.22;91.14
65207;SHT31;58477;48.072;11.970;2023-07-31T04:14:45;14.15;91.15
65207;SHT31;58477;48.072;11.970;2023-07-31T04:17:11;14.25;91.82
65207;SHT31;58477;48.072;11.970;2023-07-31T04:19:36;14.33;91.36
65207;SHT31;58477;48.072;11.970;2023-07-31T04:22:02;14.39;90.40
65207;SHT31;58477;48.072;11.970;2023-07-31T04:24:27;14.49;90.02
65207;SHT31;58477;48.072;11.970;2023-07-31T04:26:53;14.59;90.70
65207;SHT31;58477;48.072;11.970;2023-07-31T04:29:19;14.66;90.84
65207;SHT31;58477;48.072;11.970;2023-07-31T04:31:45;14.69;91.29
65207;SHT31;58477;48.072;11.970;2023-07-31T04:34:10;14.79;90.82
65207;SHT31;58477;48.072;11.970;2023-07-31T04:36:37;14.75;90.29
65207;SHT31;58477;48.072;11.970;2023-07-31T04:39:02;14.75;89.51
65207;SHT31;58477;48.072;11.970;2023-07-31T04:41:28;14.72;90.73
65207;SHT31;58477;48.072;11.970;2023-07-31T04:43:53;14.73;90.04
65207;SHT31;58477;48.072;11.970;2023-07-31T04:46:19;14.77;90.46
65207;SHT31;58477;48.072;11.970;2023-07-31T04:48:44;14.87;90.43
65207;SHT31;58477;48.072;11.970;2023-07-31T04:51:10;15.00;90.27
65207;SHT31;58477;48.072;11.970;2023-07-31T04:53:35;15.23;90.37
65207;SHT31;58477;48.072;11.970;2023-07-31T04:56:01;15.26;90.50
65207;SHT31;58477;48.072;11.970;2023-07-31T04:58:26;15.33;90.30
65207;SHT31;58477;48.072;11.970;2023-07-31T05:00:52;15.43;89.68
65207;SHT31;58477;48.072;11.970;2023-07-31T05:03:17;15.62;89.24
65207;SHT31;58477;48.072;11.970;2023-07-31T05:05:43;15.72;89.38
65207;SHT31;58477;48.072;11.970;2023-07-31T05:08:08;15.59;88.94
65207;SHT31;58477;48.072;11.970;2023-07-31T05:10:34;15.72;89.36
65207;SHT31;58477;48.072;11.970;2023-07-31T05:12:59;15.95;88.09
65207;SHT31;58477;48.072;11.970;2023-07-31T05:15:25;17.07;86.60
65207;SHT31;58477;48.072;11.970;2023-07-31T05:17:50;18.19;82.79
65207;SHT31;58477;48.072;11.970;2023-07-31T05:20:16;19.25;79.03
65207;SHT31;58477;48.072;11.970;2023-07-31T05:22:41;19.92;76.77
65207;SHT31;58477;48.072;11.970;2023-07-31T05:25:07;20.25;74.80
65207;SHT31;58477;48.072;11.970;2023-07-31T05:27:36;19.86;76.46
65207;SHT31;58477;48.072;11.970;2023-07-31T05:30:01;20.44;75.50
65207;SHT31;58477;48.072;11.970;2023-07-31T05:32:27;21.12;73.89
65207;SHT31;58477;48.072;11.970;2023-07-31T05:34:52;21.25;73.38
65207;SHT31;58477;48.072;11.970;2023-07-31T05:37:18;21.79;71.93
65207;SHT31;58477;48.072;11.970;2023-07-31T05:39:44;22.10;70.25
65207;SHT31;58477;48.072;11.970;2023-07-31T05:42:10;21.81;71.06
65207;SHT31;58477;48.072;11.970;2023-07-31T05:44:35;22.09;70.49
65207;SHT31;58477;48.072;11.970;2023-07-31T05:47:01;22.24;69.25
65207;SHT31;58477;48.072;11.970;2023-07-31T05:49:26;22.60;68.83
65207;SHT31;58477;48.072;11.970;2023-07-31T05:51:52;22.93;69.90
65207;SHT31;58477;48.072;11.970;2023-07-31T05:54:17;22.65;69.40
65207;SHT31;58477;48.072;11.970;2023-07-31T05:56:43;22.27;70.14
65207;SHT31;58477;48.072;11.970;2023-07-31T05:59:10;22.13;70.90
65207;SHT31;58477;48.072;11.970;2023-07-31T06:01:35;21.88;72.39
65207;SHT31;58477;48.072;11.970;2023-07-31T06:04:00;20.85;73.27
65207;SHT31;58477;48.072;11.970;2023-07-31T06:06:27;21.42;72.76
65207;SHT31;58477;48.072;11.970;2023-07-31T06:08:53;21.02;73.27
65207;SHT31;58477;48.072;11.970;2023-07-31T06:11:20;20.67;74.38
65207;SHT31;58477;48.072;11.970;2023-07-31T06:13:45;20.19;76.20
65207;SHT31;58477;48.072;11.970;2023-07-31T06:16:13;20.23;76.54
65207;SHT31;58477;48.072;11.970;2023-07-31T06:18:39;20.44;75.94
65207;SHT31;58477;48.072;11.970;2023-07-31T06:21:04;19.96;76.42
65207;SHT31;58477;48.072;11.970;2023-07-31T06:23:30;20.41;75.21
65207;SHT31;58477;48.072;11.970;2023-07-31T06:25:55;21.01;74.06
65207;SHT31;58477;48.072;11.970;2023-07-31T06:28:21;20.95;73.63
65207;SHT31;58477;48.072;11.970;2023-07-31T06:30:46;21.90;72.50
65207;SHT31;58477;48.072;11.970;2023-07-31T06:33:12;22.36;72.18
65207;SHT31;58477;48.072;11.970;2023-07-31T06:35:38;21.74;70.61
65207;SHT31;58477;48.072;11.970;2023-07-31T06:38:03;22.33;71.09
65207;SHT31;58477;48.072;11.970;2023-07-31T06:40:29;22.51;70.06
65207;SHT31;58477;48.072;11.970;2023-07-31T06:42:55;22.95;70.08
65207;SHT31;58477;48.072;11.970;2023-07-31T06:45:20;22.44;69.65
65207;SHT31;58477;48.072;11.970;2023-07-31T06:47:47;21.34;70.72
65207;SHT31;58477;48.072;11.970;2023-07-31T06:50:12;21.14;72.75
65207;SHT31;58477;48.072;11.970;2023-07-31T06:52:38;20.77;73.72
65207;SHT31;58477;48.072;11.970;2023-07-31T06:55:16;20.57;74.15
65207;SHT31;58477;48.072;11.970;2023-07-31T06:57:43;20.10;74.88
65207;SHT31;58477;48.072;11.970;2023-07-31T07:00:09;19.99;75.50
65207;SHT31;58477;48.072;11.970;2023-07-31T07:02:35;19.50;75.34
65207;SHT31;58477;48.072;11.970;2023-07-31T07:05:00;19.30;76.60
65207;SHT31;58477;48.072;11.970;2023-07-31T07:07:26;19.44;76.17
65207;SHT31;58477;48.072;11.970;2023-07-31T07:09:51;19.59;75.65
65207;SHT31;58477;48.072;11.970;2023-07-31T07:12:17;19.68;77.16
65207;SHT31;58477;48.072;11.970;2023-07-31T07:14:42;19.78;74.09
65207;SHT31;58477;48.072;11.970;2023-07-31T07:17:08;20.30;73.90
65207;SHT31;58477;48.072;11.970;2023-07-31T07:19:33;20.40;73.75
65207;SHT31;58477;48.072;11.970;2023-07-31T07:21:59;21.15;71.97
65207;SHT31;58477;48.072;11.970;2023-07-31T07:24:27;21.59;70.20
65207;SHT31;58477;48.072;11.970;2023-07-31T07:26:52;21.81;69.12
65207;SHT31;58477;48.072;11.970;2023-07-31T07:29:17;20.84;71.19
65207;SHT31;58477;48.072;11.970;2023-07-31T07:31:43;21.01;72.03
65207;SHT31;58477;48.072;11.970;2023-07-31T07:34:08;20.46;72.20
65207;SHT31;58477;48.072;11.970;2023-07-31T07:36:34;21.22;70.91
65207;SHT31;58477;48.072;11.970;2023-07-31T07:38:59;21.17;72.00
65207;SHT31;58477;48.072;11.970;2023-07-31T07:41:25;20.97;71.82
65207;SHT31;58477;48.072;11.970;2023-07-31T07:43:50;21.21;70.44
65207;SHT31;58477;48.072;11.970;2023-07-31T07:46:16;21.99;68.23
65207;SHT31;58477;48.072;11.970;2023-07-31T07:48:42;22.19;66.88
65207;SHT31;58477;48.072;11.970;2023-07-31T07:51:07;22.73;68.38
65207;SHT31;58477;48.072;11.970;2023-07-31T07:53:33;23.22;66.37
65207;SHT31;58477;48.072;11.970;2023-07-31T07:55:58;23.52;67.72
65207;SHT31;58477;48.072;11.970;2023-07-31T07:58:23;24.57;60.73
65207;SHT31;58477;48.072;11.970;2023-07-31T08:00:50;24.09;62.69
65207;SHT31;58477;48.072;11.970;2023-07-31T08:03:16;23.85;62.98
65207;SHT31;58477;48.072;11.970;2023-07-31T08:05:42;24.57;62.72
65207;SHT31;58477;48.072;11.970;2023-07-31T08:08:07;23.82;61.73
65207;SHT31;58477;48.072;11.970;2023-07-31T08:10:33;23.22;64.20
65207;SHT31;58477;48.072;11.970;2023-07-31T08:12:58;22.88;65.24
65207;SHT31;58477;48.072;11.970;2023-07-31T08:15:24;23.15;65.59
65207;SHT31;58477;48.072;11.970;2023-07-31T08:17:49;23.49;65.12
65207;SHT31;58477;48.072;11.970;2023-07-31T08:20:15;23.76;63.63
65207;SHT31;58477;48.072;11.970;2023-07-31T08:22:40;23.31;62.82
65207;SHT31;58477;48.072;11.970;2023-07-31T08:25:06;23.29;63.37
65207;SHT31;58477;48.072;11.970;2023-07-31T08:27:32;25.17;59.38
65207;SHT31;58477;48.072;11.970;2023-07-31T08:29:57;23.85;60.22
65207;SHT31;58477;48.072;11.970;2023-07-31T08:32:23;25.25;60.69
65207;SHT31;58477;48.072;11.970;2023-07-31T08:34:48;25.75;59.62
65207;SHT31;58477;48.072;11.970;2023-07-31T08:37:14;27.86;56.50
65207;SHT31;58477;48.072;11.970;2023-07-31T08:39:40;26.00;57.17
65207;SHT31;58477;48.072;11.970;2023-07-31T08:42:08;27.01;56.59
65207;SHT31;58477;48.072;11.970;2023-07-31T08:44:34;27.59;55.91
65207;SHT31;58477;48.072;11.970;2023-07-31T08:47:00;27.74;57.16
65207;SHT31;58477;48.072;11.970;2023-07-31T08:49:27;28.43;53.96
65207;SHT31;58477;48.072;11.970;2023-07-31T08:51:53;27.07;57.86
65207;SHT31;58477;48.072;11.970;2023-07-31T08:54:20;26.70;57.51
65207;SHT31;58477;48.072;11.970;2023-07-31T08:56:46;27.72;57.95
65207;SHT31;58477;48.072;11.970;2023-07-31T08:59:12;27.49;56.81
65207;SHT31;58477;48.072;11.970;2023-07-31T09:01:43;26.56;56.38
65207;SHT31;58477;48.072;11.970;2023-07-31T09:04:09;25.21;59.76
65207;SHT31;58477;48.072;11.970;2023-07-31T09:06:36;25.25;60.13
65207;SHT31;58477;48.072;11.970;2023-07-31T09:09:02;23.92;63.15
65207;SHT31;58477;48.072;11.970;2023-07-31T09:11:28;24.10;63.42
65207;SHT31;58477;48.072;11.970;2023-07-31T09:13:57;23.98;62.89
65207;SHT31;58477;48.072;11.970;2023-07-31T09:16:29;23.07;65.50
65207;SHT31;58477;48.072;11.970;2023-07-31T09:18:57;22.54;66.83
65207;SHT31;58477;48.072;11.970;2023-07-31T09:21:24;22.80;66.27
65207;SHT31;58477;48.072;11.970;2023-07-31T09:23:51;22.27;68.23
65207;SHT31;58477;48.072;11.970;2023-07-31T09:26:29;21.55;69.26
65207;SHT31;58477;48.072;11.970;2023-07-31T09:28:56;21.55;69.11
65207;SHT31;58477;48.072;11.970;2023-07-31T09:31:39;21.65;68.98
65207;SHT31;58477;48.072;11.970;2023-07-31T09:34:05;21.86;68.65
65207;SHT31;58477;48.072;11.970;2023-07-31T09:36:30;21.63;68.33
65207;SHT31;58477;48.072;11.970;2023-07-31T09:39:02;21.61;67.68
65207;SHT31;58477;48.072;11.970;2023-07-31T09:41:28;21.39;68.25
65207;SHT31;58477;48.072;11.970;2023-07-31T09:43:54;22.12;68.63
65207;SHT31;58477;48.072;11.970;2023-07-31T09:46:20;22.40;66.77
65207;SHT31;58477;48.072;11.970;2023-07-31T09:48:47;23.24;65.71
65207;SHT31;58477;48.072;11.970;2023-07-31T09:51:12;24.06;64.62
65207;SHT31;58477;48.072;11.970;2023-07-31T09:53:37;24.46;64.30
65207;SHT31;58477;48.072;11.970;2023-07-31T09:56:06;25.03;64.46
65207;SHT31;58477;48.072;11.970;2023-07-31T09:58:34;25.61;61.90
65207;SHT31;58477;48.072;11.970;2023-07-31T10:01:01;25.05;62.57
65207;SHT31;58477;48.072;11.970;2023-07-31T10:03:27;24.99;62.60
65207;SHT31;58477;48.072;11.970;2023-07-31T10:05:57;24.88;62.66
65207;SHT31;58477;48.072;11.970;2023-07-31T10:08:27;24.91;61.94
65207;SHT31;58477;48.072;11.970;2023-07-31T10:10:58;26.04;59.49
65207;SHT31;58477;48.072;11.970;2023-07-31T10:13:24;27.49;56.82
65207;SHT31;58477;48.072;11.970;2023-07-31T10:15:50;28.72;53.87
65207;SHT31;58477;48.072;11.970;2023-07-31T10:18:18;29.63;51.54
65207;SHT31;58477;48.072;11.970;2023-07-31T10:20:44;30.29;52.58
65207;SHT31;58477;48.072;11.970;2023-07-31T10:23:10;29.79;50.41
65207;SHT31;58477;48.072;11.970;2023-07-31T10:25:37;29.95;52.03
65207;SHT31;58477;48.072;11.970;2023-07-31T10:28:03;30.41;49.99
65207;SHT31;58477;48.072;11.970;2023-07-31T10:30:30;26.88;56.46
65207;SHT31;58477;48.072;11.970;2023-07-31T10:32:57;27.35;57.10
65207;SHT31;58477;48.072;11.970;2023-07-31T10:35:25;27.72;56.04
65207;SHT31;58477;48.072;11.970;2023-07-31T10:37:51;28.94;53.08
65207;SHT31;58477;48.072;11.970;2023-07-31T10:40:27;28.07;54.18
65207;SHT31;58477;48.072;11.970;2023-07-31T10:42:54;28.60;53.86
65207;SHT31;58477;48.072;11.970;2023-07-31T10:47:58;28.47;50.02
65207;SHT31;58477;48.072;11.970;2023-07-31T10:50:25;29.10;52.36
65207;SHT31;58477;48.072;11.970;2023-07-31T10:52:54;29.56;53.48
65207;SHT31;58477;48.072;11.970;2023-07-31T10:58:13;28.04;52.69
65207;SHT31;58477;48.072;11.970;2023-07-31T11:00:43;28.16;53.30
65207;SHT31;58477;48.072;11.970;2023-07-31T11:03:17;28.94;52.13
65207;SHT31;58477;48.072;11.970;2023-07-31T11:05:46;28.34;53.87
65207;SHT31;58477;48.072;11.970;2023-07-31T11:08:23;28.30;52.43
65207;SHT31;58477;48.072;11.970;2023-07-31T11:10:51;27.93;51.71
65207;SHT31;58477;48.072;11.970;2023-07-31T11:13:33;27.58;51.50
65207;SHT31;58477;48.072;11.970;2023-07-31T11:15:59;28.07;51.49
65207;SHT31;58477;48.072;11.970;2023-07-31T11:18:26;27.93;51.86
65207;SHT31;58477;48.072;11.970;2023-07-31T11:20:53;28.20;51.87
65207;SHT31;58477;48.072;11.970;2023-07-31T11:23:19;27.72;51.77
65207;SHT31;58477;48.072;11.970;2023-07-31T11:25:45;28.46;52.07
65207;SHT31;58477;48.072;11.970;2023-07-31T11:28:15;28.23;50.91
65207;SHT31;58477;48.072;11.970;2023-07-31T11:30:43;27.58;51.98
65207;SHT31;58477;48.072;11.970;2023-07-31T11:33:10;27.22;49.76
65207;SHT31;58477;48.072;11.970;2023-07-31T11:35:45;26.87;53.18
65207;SHT31;58477;48.072;11.970;2023-07-31T11:38:25;27.35;50.79
65207;SHT31;58477;48.072;11.970;2023-07-31T11:40:52;27.73;50.39
65207;SHT31;58477;48.072;11.970;2023-07-31T11:43:18;28.58;48.65
65207;SHT31;58477;48.072;11.970;2023-07-31T11:45:46;29.36;49.44
65207;SHT31;58477;48.072;11.970;2023-07-31T11:50:50;27.11;50.72
65207;SHT31;58477;48.072;11.970;2023-07-31T11:53:19;27.25;52.68
65207;SHT31;58477;48.072;11.970;2023-07-31T11:55:46;28.28;51.61
65207;SHT31;58477;48.072;11.970;2023-07-31T11:58:13;29.16;50.81
65207;SHT31;58477;48.072;11.970;2023-07-31T12:00:40;28.60;48.36
65207;SHT31;58477;48.072;11.970;2023-07-31T12:03:06;29.61;47.68
65207;SHT31;58477;48.072;11.970;2023-07-31T12:05:32;29.11;48.33
65207;SHT31;58477;48.072;11.970;2023-07-31T12:07:57;29.05;50.49
65207;SHT31;58477;48.072;11.970;2023-07-31T12:10:30;29.04;51.76
65207;SHT31;58477;48.072;11.970;2023-07-31T12:13:19;30.17;49.74
65207;SHT31;58477;48.072;11.970;2023-07-31T12:15:45;29.35;50.00
65207;SHT31;58477;48.072;11.970;2023-07-31T12:18:13;28.75;50.58
65207;SHT31;58477;48.072;11.970;2023-07-31T12:20:43;28.10;51.89
65207;SHT31;58477;48.072;11.970;2023-07-31T12:23:19;27.37;50.18
65207;SHT31;58477;48.072;11.970;2023-07-31T12:26:00;28.28;47.99
65207;SHT31;58477;48.072;11.970;2023-07-31T12:28:26;28.43;50.42
65207;SHT31;58477;48.072;11.970;2023-07-31T12:30:51;28.81;48.56
65207;SHT31;58477;48.072;11.970;2023-07-31T12:33:18;29.10;49.05
65207;SHT31;58477;48.072;11.970;2023-07-31T12:35:45;29.65;48.64
65207;SHT31;58477;48.072;11.970;2023-07-31T12:38:12;29.72;48.18
65207;SHT31;58477;48.072;11.970;2023-07-31T12:40:39;30.92;49.47
65207;SHT31;58477;48.072;11.970;2023-07-31T12:43:05;29.42;48.32
65207;SHT31;58477;48.072;11.970;2023-07-31T12:45:31;28.39;49.44
65207;SHT31;58477;48.072;11.970;2023-07-31T12:47:58;28.27;50.05
65207;SHT31;58477;48.072;11.970;2023-07-31T12:50:23;29.15;48.30
65207;SHT31;58477;48.072;11.970;2023-07-31T12:52:49;28.36;50.90
65207;SHT31;58477;48.072;11.970;2023-07-31T12:55:15;28.23;50.52
65207;SHT31;58477;48.072;11.970;2023-07-31T12:57:40;27.81;55.02
65207;SHT31;58477;48.072;11.970;2023-07-31T13:00:08;26.56;55.26
65207;SHT31;58477;48.072;11.970;2023-07-31T13:02:33;26.64;54.53
65207;SHT31;58477;48.072;11.970;2023-07-31T13:04:59;26.76;54.33
65207;SHT31;58477;48.072;11.970;2023-07-31T13:07:24;26.86;54.86
65207;SHT31;58477;48.072;11.970;2023-07-31T13:09:51;28.03;51.67
65207;SHT31;58477;48.072;11.970;2023-07-31T13:12:16;29.72;52.23
65207;SHT31;58477;48.072;11.970;2023-07-31T13:14:43;30.61;49.87
65207;SHT31;58477;48.072;11.970;2023-07-31T13:17:09;30.00;47.14
65207;SHT31;58477;48.072;11.970;2023-07-31T13:19:35;29.11;48.34
65207;SHT31;58477;48.072;11.970;2023-07-31T13:22:01;27.01;50.42
65207;SHT31;58477;48.072;11.970;2023-07-31T13:24:26;27.21;55.41
65207;SHT31;58477;48.072;11.970;2023-07-31T13:26:52;27.25;55.23
65207;SHT31;58477;48.072;11.970;2023-07-31T13:29:17;26.65;54.01
65207;SHT31;58477;48.072;11.970;2023-07-31T13:31:43;26.61;55.45
65207;SHT31;58477;48.072;11.970;2023-07-31T13:34:08;27.14;56.13
65207;SHT31;58477;48.072;11.970;2023-07-31T13:36:34;26.78;53.95
65207;SHT31;58477;48.072;11.970;2023-07-31T13:39:02;25.96;52.45
65207;SHT31;58477;48.072;11.970;2023-07-31T13:41:27;26.76;51.94
65207;SHT31;58477;48.072;11.970;2023-07-31T13:43:53;27.88;51.71
65207;SHT31;58477;48.072;11.970;2023-07-31T13:46:18;27.93;52.57
65207;SHT31;58477;48.072;11.970;2023-07-31T13:48:44;27.61;51.19
65207;SHT31;58477;48.072;11.970;2023-07-31T13:51:09;27.66;52.44
65207;SHT31;58477;48.072;11.970;2023-07-31T13:53:34;27.63;50.97
65207;SHT31;58477;48.072;11.970;2023-07-31T13:56:00;27.97;47.76
65207;SHT31;58477;48.072;11.970;2023-07-31T13:58:26;28.10;51.00
65207;SHT31;58477;48.072;11.970;2023-07-31T14:00:51;27.81;51.03
65207;SHT31;58477;48.072;11.970;2023-07-31T14:03:17;27.39;50.58
65207;SHT31;58477;48.072;11.970;2023-07-31T14:05:42;27.78;50.02
65207;SHT31;58477;48.072;11.970;2023-07-31T14:08:07;28.48;51.88
65207;SHT31;58477;48.072;11.970;2023-07-31T14:10:33;27.99;50.92
65207;SHT31;58477;48.072;11.970;2023-07-31T14:12:58;26.53;51.68
65207;SHT31;58477;48.072;11.970;2023-07-31T14:15:24;27.72;51.47
65207;SHT31;58477;48.072;11.970;2023-07-31T14:17:49;27.67;51.20
65207;SHT31;58477;48.072;11.970;2023-07-31T14:20:14;27.92;51.70
65207;SHT31;58477;48.072;11.970;2023-07-31T14:22:40;27.82;50.65
65207;SHT31;58477;48.072;11.970;2023-07-31T14:25:06;27.73;53.55
65207;SHT31;58477;48.072;11.970;2023-07-31T14:27:31;28.09;51.25
65207;SHT31;58477;48.072;11.970;2023-07-31T14:29:57;27.89;53.16
65207;SHT31;58477;48.072;11.970;2023-07-31T14:32:22;28.17;50.17
65207;SHT31;58477;48.072;11.970;2023-07-31T14:34:51;28.47;51.01
65207;SHT31;58477;48.072;11.970;2023-07-31T14:37:17;28.81;50.85
65207;SHT31;58477;48.072;11.970;2023-07-31T14:39:42;28.06;52.04
65207;SHT31;58477;48.072;11.970;2023-07-31T14:42:09;28.37;51.89
65207;SHT31;58477;48.072;11.970;2023-07-31T14:44:34;27.51;50.85
65207;SHT31;58477;48.072;11.970;2023-07-31T14:46:59;28.30;51.20
65207;SHT31;58477;48.072;11.970;2023-07-31T14:49:25;28.51;48.91
65207;SHT31;58477;48.072;11.970;2023-07-31T14:51:52;27.37;50.17
65207;SHT31;58477;48.072;11.970;2023-07-31T14:54:18;26.29;51.41
65207;SHT31;58477;48.072;11.970;2023-07-31T14:56:43;26.09;49.38
65207;SHT31;58477;48.072;11.970;2023-07-31T14:59:08;26.30;50.33
65207;SHT31;58477;48.072;11.970;2023-07-31T15:01:35;26.56;51.49
65207;SHT31;58477;48.072;11.970;2023-07-31T15:04:00;26.10;49.57
65207;SHT31;58477;48.072;11.970;2023-07-31T15:06:26;25.65;52.63
65207;SHT31;58477;48.072;11.970;2023-07-31T15:08:51;25.69;52.38
65207;SHT31;58477;48.072;11.970;2023-07-31T15:11:16;25.66;52.69
65207;SHT31;58477;48.072;11.970;2023-07-31T15:13:43;25.63;53.32
65207;SHT31;58477;48.072;11.970;2023-07-31T15:16:09;25.15;53.49
65207;SHT31;58477;48.072;11.970;2023-07-31T15:18:34;25.28;52.02
65207;SHT31;58477;48.072;11.970;2023-07-31T15:21:00;25.42;54.28
65207;SHT31;58477;48.072;11.970;2023-07-31T15:23:25;25.55;52.22